Time;durP1;ratioP1;P1;durP2;ratioP2;P2;SDS_P1;SDS_P2;PMS_P1;PMS_P2;Temp;Humidity;BMP_temperature;BMP_pressure;BME280_temperature;BME280_humidity;BME280_pressure;Samples;Min_cycle;Max_cycle;Signal;HPM_P1;HPM_P2
2022/01/10 00:00:14;;;;;;;33.60;18.20;;;;;;;-0.16;87.96;98721.55;104961;1274;22582;-63
2022/01/10 00:02:44;;;;;;;36.40;19.20;;;;;;;-0.15;87.95;98721.39;104920;1274;138515;-63
2022/01/10 00:05:13;;;;;;;32.20;18.50;;;;;;;-0.15;88.02;98732.09;109446;1272;22426;-65
2022/01/10 00:07:42;;;;;;;39.10;19.20;;;;;;;-0.15;88.11;98729.58;109461;1272;22423;-65
2022/01/10 00:10:11;;;;;;;32.80;18.20;;;;;;;-0.13;88.24;98726.75;109406;1274;138821;-65
2022/01/10 00:12:58;;;;;;;32.40;17.30;;;;;;;-0.10;88.12;98738.20;109446;1273;22447;-65
2022/01/10 00:15:26;;;;;;;32.10;18.20;;;;;;;-0.10;88.47;98740.22;109375;1273;137646;-65
2022/01/10 00:17:59;;;;;;;36.00;20.40;;;;;;;-0.08;88.29;98752.91;109515;1273;23603;-65
2022/01/10 00:20:36;;;;;;;34.70;17.20;;;;;;;-0.10;87.95;98746.48;109530;1273;22424;-65
2022/01/10 00:23:04;;;;;;;32.80;18.10;;;;;;;-0.13;88.07;98760.15;109389;1271;137404;-65
2022/01/10 00:25:32;;;;;;;31.90;18.00;;;;;;;-0.16;88.05;98760.23;108781;1273;22568;-69
2022/01/10 00:28:00;;;;;;;35.60;19.90;;;;;;;-0.19;87.93;98766.15;104857;1273;138581;-69
2022/01/10 00:30:28;;;;;;;30.80;17.60;;;;;;;-0.21;87.95;98768.09;105006;1274;25421;-69
2022/01/10 00:32:57;;;;;;;31.40;17.90;;;;;;;-0.26;87.72;98754.77;109274;1272;139441;-70
2022/01/10 00:35:24;;;;;;;34.40;18.00;;;;;;;-0.31;87.66;98763.90;109489;1273;22456;-70
2022/01/10 00:37:52;;;;;;;29.30;16.80;;;;;;;-0.33;87.86;98759.41;109573;1272;22440;-70
2022/01/10 00:40:20;;;;;;;34.50;18.80;;;;;;;-0.36;87.92;98763.10;109204;1274;139284;-70
2022/01/10 00:42:54;;;;;;;29.50;16.50;;;;;;;-0.38;88.02;98761.58;109502;1271;22415;-70
2022/01/10 00:45:26;;;;;;;33.70;17.90;;;;;;;-0.40;88.05;98762.36;109323;1274;139467;-70
2022/01/10 00:47:55;;;;;;;30.40;17.20;;;;;;;-0.46;87.82;98767.68;109508;1272;23288;-70
2022/01/10 00:50:24;;;;;;;27.90;17.40;;;;;;;-0.52;87.73;98767.42;109483;1273;22481;-70
2022/01/10 00:52:53;;;;;;;28.10;14.90;;;;;;;-0.57;88.00;98770.10;109409;1273;139138;-70
2022/01/10 00:55:21;;;;;;;23.50;14.10;;;;;;;-0.59;88.04;98772.13;109427;1274;22433;-70
2022/01/10 00:57:48;;;;;;;23.20;13.80;;;;;;;-0.61;87.96;98774.92;109357;1273;139437;-70
2022/01/10 01:00:16;;;;;;;23.10;13.30;;;;;;;-0.63;88.32;98773.06;109545;1273;22625;-70
2022/01/10 01:02:45;;;;;;;25.90;14.80;;;;;;;-0.64;88.02;98775.16;109226;1274;139164;-69
2022/01/10 01:05:16;;;;;;;26.30;13.80;;;;;;;-0.65;88.15;98770.51;109475;1273;22454;-69
2022/01/10 01:07:45;;;;;;;23.80;14.20;;;;;;;-0.69;88.04;98777.40;109486;1273;22421;-69
2022/01/10 01:13:00;;;;;;;25.00;14.30;;;;;;;-0.72;87.96;98779.46;109337;1274;22524;-69
2022/01/10 01:24:06;;;;;;;18.20;10.30;;;;;;;-0.74;88.17;98784.30;109435;1274;24629;-70
2022/01/10 01:26:44;;;;;;;16.30;10.00;;;;;;;-0.79;88.23;98785.84;106791;1273;22641;-70
2022/01/10 01:29:14;;;;;;;19.00;11.00;;;;;;;-0.84;88.23;98787.41;104726;1274;138187;-70
2022/01/10 01:31:42;;;;;;;19.10;11.40;;;;;;;-0.88;88.02;98791.92;104874;1274;23205;-70
2022/01/10 01:34:11;;;;;;;19.00;11.20;;;;;;;-0.92;87.99;98791.24;104888;1274;138608;-71
2022/01/10 01:36:41;;;;;;;19.80;10.80;;;;;;;-0.99;87.93;98792.29;109442;1273;23657;-70
2022/01/10 01:39:23;;;;;;;18.50;11.40;;;;;;;-1.06;87.93;98791.91;109409;1273;139308;-70
2022/01/10 01:42:01;;;;;;;22.60;11.90;;;;;;;-1.10;88.02;98795.06;109450;1272;22462;-71
2022/01/10 01:44:29;;;;;;;20.00;11.10;;;;;;;-1.12;88.26;98793.36;109319;1274;22661;-70
2022/01/10 01:46:57;;;;;;;19.10;10.70;;;;;;;-1.11;88.46;98794.11;109236;1274;139123;-70
2022/01/10 01:49:25;;;;;;;18.80;10.60;;;;;;;-1.09;88.32;98795.06;109321;1272;22464;-70
2022/01/10 01:51:53;;;;;;;18.30;12.00;;;;;;;-1.08;88.50;98798.93;109316;1274;139156;-70
2022/01/10 01:54:21;;;;;;;17.20;10.90;;;;;;;-1.06;88.62;98799.23;109490;1273;22408;-70
2022/01/10 01:56:49;;;;;;;21.60;11.30;;;;;;;-1.02;88.60;98805.13;106188;1274;24212;-70
2022/01/10 01:59:17;;;;;;;19.80;11.60;;;;;;;-1.00;88.45;98806.34;104662;1275;138065;-70
2022/01/10 02:01:45;;;;;;;14.60;8.90;;;;;;;-1.00;88.46;98810.00;104894;1274;22549;-69
2022/01/10 02:04:13;;;;;;;15.60;9.40;;;;;;;-1.01;88.39;98812.48;109059;1274;139267;-70
2022/01/10 02:06:42;;;;;;;14.40;8.80;;;;;;;-1.05;88.55;98809.48;109273;1274;22450;-70
2022/01/10 02:09:14;;;;;;;14.90;9.50;;;;;;;-1.09;88.20;98813.33;109304;1274;140496;-69
2022/01/10 02:11:46;;;;;;;13.70;9.10;;;;;;;-1.14;88.01;98818.60;109450;1273;22632;-71
2022/01/10 02:14:15;;;;;;;16.20;9.80;;;;;;;-1.16;88.20;98816.27;109278;1274;22438;-70
2022/01/10 02:16:45;;;;;;;16.10;8.20;;;;;;;-1.18;87.99;98823.38;109300;1273;138753;-70
2022/01/10 02:19:20;;;;;;;13.70;8.60;;;;;;;-1.19;88.07;98825.72;109342;1274;22475;-69
2022/01/10 02:21:47;;;;;;;12.20;8.40;;;;;;;-1.20;88.21;98825.58;109238;1274;139259;-71
2022/01/10 02:24:17;;;;;;;19.90;9.80;;;;;;;-1.23;87.71;98826.77;109355;1272;22451;-71
2022/01/10 02:26:48;;;;;;;12.80;8.20;;;;;;;-1.24;87.79;98831.85;109391;1273;22488;-71
2022/01/10 02:29:16;;;;;;;14.40;8.80;;;;;;;-1.22;88.15;98833.84;109409;1274;139481;-70
2022/01/10 02:31:45;;;;;;;13.90;8.90;;;;;;;-1.21;88.09;98837.05;109453;1272;23156;-71
2022/01/10 02:34:18;;;;;;;13.00;8.20;;;;;;;-1.21;88.11;98837.22;109332;1274;140663;-71
2022/01/10 02:36:46;;;;;;;12.20;8.40;;;;;;;-1.23;88.03;98836.58;109510;1272;23670;-71
2022/01/10 02:39:19;;;;;;;13.10;8.20;;;;;;;-1.29;87.72;98837.23;109273;1274;138415;-71
2022/01/10 02:41:47;;;;;;;12.20;8.20;;;;;;;-1.35;87.91;98837.44;109469;1274;22414;-71
2022/01/10 02:44:16;;;;;;;12.10;7.50;;;;;;;-1.40;87.52;98837.89;109392;1273;22456;-70
2022/01/10 02:46:45;;;;;;;11.80;8.00;;;;;;;-1.45;87.88;98842.98;109404;1272;139832;-70
2022/01/10 02:49:27;;;;;;;15.90;8.70;;;;;;;-1.47;88.02;98846.84;109418;1273;22464;-70
2022/01/10 02:51:57;;;;;;;13.80;9.80;;;;;;;-1.45;88.09;98851.37;109218;1274;138006;-70
2022/01/10 02:54:25;;;;;;;11.70;8.10;;;;;;;-1.46;87.92;98847.17;109353;1274;23660;-70
2022/01/10 02:56:55;;;;;;;15.20;9.30;;;;;;;-1.43;88.16;98850.42;106085;1274;139216;-68
2022/01/10 02:59:24;;;;;;;15.20;9.20;;;;;;;-1.39;88.19;98855.82;104911;1274;24445;-69
2022/01/10 03:01:52;;;;;;;13.20;9.40;;;;;;;-1.38;88.14;98859.36;109491;1273;22488;-70
2022/01/10 03:04:21;;;;;;;15.80;10.10;;;;;;;-1.39;88.00;98866.80;109415;1273;138039;-70
2022/01/10 03:06:49;;;;;;;16.30;10.10;;;;;;;-1.41;88.13;98869.49;109372;1274;22423;-70
2022/01/10 03:09:17;;;;;;;23.10;12.10;;;;;;;-1.45;87.94;98868.09;109296;1274;138322;-70
2022/01/10 03:11:45;;;;;;;18.10;10.00;;;;;;;-1.50;87.92;98876.36;109367;1273;22243;-71
2022/01/10 03:14:13;;;;;;;24.10;12.70;;;;;;;-1.54;87.99;98880.02;109097;1274;194712;-70
2022/01/10 03:18:09;;;;;;;19.10;11.40;;;;;;;-1.59;88.08;98881.29;101675;1309;545416;-70
2022/01/10 03:20:38;;;;;;;17.00;10.90;;;;;;;-1.61;88.20;98882.55;108363;1283;22531;-69
2022/01/10 03:23:07;;;;;;;17.20;10.10;;;;;;;-1.65;88.03;98885.55;108135;1283;137673;-70
2022/01/10 03:25:36;;;;;;;14.60;8.50;;;;;;;-1.69;88.12;98881.08;108004;1287;22485;-69
2022/01/10 03:28:06;;;;;;;15.30;9.00;;;;;;;-1.70;88.16;98885.96;107836;1289;138250;-70
2022/01/10 03:30:35;;;;;;;17.80;10.00;;;;;;;-1.70;88.14;98887.77;108093;1288;22486;-70
2022/01/10 03:33:04;;;;;;;20.20;9.90;;;;;;;-1.71;88.07;98893.59;107815;1287;137860;-70
2022/01/10 03:35:35;;;;;;;17.10;10.30;;;;;;;-1.74;88.19;98896.96;108914;1279;22439;-71
2022/01/10 03:38:05;;;;;;;17.50;11.00;;;;;;;-1.74;88.12;98899.72;108907;1278;22496;-70
2022/01/10 03:40:35;;;;;;;14.30;9.20;;;;;;;-1.75;88.25;98904.64;108934;1277;139200;-69
2022/01/10 03:43:06;;;;;;;15.50;9.20;;;;;;;-1.76;88.38;98904.17;108975;1278;23283;-70
2022/01/10 03:45:34;;;;;;;15.80;10.80;;;;;;;-1.77;88.34;98902.02;108747;1279;140016;-69
2022/01/10 03:48:02;;;;;;;15.90;9.60;;;;;;;-1.77;88.41;98906.10;109028;1278;22560;-69
2022/01/10 03:50:31;;;;;;;20.00;10.90;;;;;;;-1.74;88.32;98913.90;109043;1277;22465;-70
2022/01/10 03:52:59;;;;;;;22.30;10.90;;;;;;;-1.71;88.34;98913.89;108796;1278;139307;-70
2022/01/10 03:55:27;;;;;;;22.20;10.00;;;;;;;-1.73;88.46;98913.56;108966;1279;22448;-70
2022/01/10 03:57:55;;;;;;;15.40;9.70;;;;;;;-1.73;88.40;98912.81;108782;1279;139350;-70
2022/01/10 04:00:23;;;;;;;17.90;11.20;;;;;;;-1.73;88.48;98909.91;108990;1278;22644;-69
2022/01/10 04:02:57;;;;;;;17.70;10.10;;;;;;;-1.72;88.43;98911.45;108965;1278;22421;-69
2022/01/10 04:05:29;;;;;;;19.90;11.70;;;;;;;-1.67;88.41;98918.90;108787;1278;137721;-69
2022/01/10 04:07:57;;;;;;;20.60;11.40;;;;;;;-1.64;88.53;98921.84;108956;1278;22433;-69
2022/01/10 04:10:25;;;;;;;16.90;11.50;;;;;;;-1.62;88.59;98922.55;108945;1278;138564;-69
2022/01/10 04:12:53;;;;;;;17.90;10.30;;;;;;;-1.62;88.46;98924.83;108893;1279;22521;-70
2022/01/10 04:15:21;;;;;;;20.90;12.70;;;;;;;-1.65;88.36;98926.47;108931;1278;137368;-70
2022/01/10 04:17:55;;;;;;;17.20;10.50;;;;;;;-1.65;88.29;98931.65;109067;1277;22455;-71
2022/01/10 04:20:26;;;;;;;18.90;12.00;;;;;;;-1.65;88.46;98938.80;108970;1278;22559;-71
2022/01/10 04:22:54;;;;;;;17.20;10.50;;;;;;;-1.67;87.97;98942.06;108852;1277;139591;-71
2022/01/10 04:25:22;;;;;;;21.90;12.30;;;;;;;-1.71;88.24;98945.23;108982;1278;22421;-71
2022/01/10 04:27:50;;;;;;;16.00;10.20;;;;;;;-1.73;88.34;98946.39;108932;1277;138121;-71
2022/01/10 04:30:24;;;;;;;18.90;10.70;;;;;;;-1.73;88.18;98951.03;109043;1278;22412;-72
2022/01/10 04:32:52;;;;;;;18.20;12.50;;;;;;;-1.73;88.54;98956.77;108982;1278;22435;-71
2022/01/10 04:35:20;;;;;;;23.30;12.20;;;;;;;-1.72;88.30;98954.80;108889;1278;139707;-71
2022/01/10 04:37:48;;;;;;;20.30;11.70;;;;;;;-1.72;88.62;98955.30;109065;1278;22478;-71
2022/01/10 04:40:16;;;;;;;20.80;12.40;;;;;;;-1.72;88.55;98958.45;108857;1278;137823;-71
2022/01/10 04:42:45;;;;;;;22.40;12.20;;;;;;;-1.71;88.57;98960.48;108964;1279;22455;-71
2022/01/10 04:45:13;;;;;;;21.90;12.60;;;;;;;-1.72;88.58;98956.98;108841;1278;137873;-69
2022/01/10 04:47:41;;;;;;;32.70;16.70;;;;;;;-1.72;88.64;98966.14;109065;1277;22446;-70
2022/01/10 04:52:51;;;;;;;27.30;19.30;;;;;;;-1.73;88.62;98970.63;108794;1278;138948;-70
2022/01/10 04:55:19;;;;;;;23.50;13.50;;;;;;;-1.75;88.56;98971.69;108982;1278;23045;-70
2022/01/10 04:57:48;;;;;;;20.40;12.40;;;;;;;-1.75;88.89;98972.91;108868;1278;140979;-71
2022/01/10 05:00:16;;;;;;;22.80;13.60;;;;;;;-1.76;88.71;98982.77;108882;1278;22477;-71
2022/01/10 05:02:46;;;;;;;22.30;13.50;;;;;;;-1.80;88.82;98993.27;109005;1279;23500;-70
2022/01/10 05:05:14;;;;;;;21.20;13.90;;;;;;;-1.84;88.65;98994.64;108840;1279;138166;-70
2022/01/10 05:07:42;;;;;;;23.90;13.90;;;;;;;-1.86;88.68;98997.23;108992;1277;23164;-71
2022/01/10 05:10:10;;;;;;;24.20;13.00;;;;;;;-1.87;88.98;98999.20;108871;1278;138324;-70
2022/01/10 05:12:40;;;;;;;21.50;13.80;;;;;;;-1.87;88.83;99003.02;108968;1278;22473;-71
2022/01/10 05:15:08;;;;;;;22.50;13.50;;;;;;;-1.88;88.59;99007.05;108797;1279;139019;-70
2022/01/10 05:17:36;;;;;;;21.40;13.20;;;;;;;-1.89;88.69;99002.95;109001;1278;22503;-71
2022/01/10 05:20:05;;;;;;;20.30;12.50;;;;;;;-1.88;88.89;99007.88;108970;1277;22457;-70
2022/01/10 05:22:34;;;;;;;22.60;12.10;;;;;;;-1.87;88.94;99008.53;108876;1278;138636;-70
2022/01/10 05:25:02;;;;;;;22.70;12.80;;;;;;;-1.84;89.04;99012.99;108985;1278;22494;-70
2022/01/10 05:27:30;;;;;;;20.70;12.20;;;;;;;-1.81;89.05;99019.96;108770;1279;138070;-70
2022/01/10 05:30:00;;;;;;;22.20;12.70;;;;;;;-1.78;88.87;99020.45;108961;1277;23139;-70
2022/01/10 05:32:28;;;;;;;20.50;12.50;;;;;;;-1.76;89.10;99022.03;108983;1279;23726;-70
2022/01/10 05:35:03;;;;;;;22.60;13.60;;;;;;;-1.75;88.98;99027.46;108785;1278;139008;-70
2022/01/10 05:37:34;;;;;;;23.00;13.90;;;;;;;-1.72;88.93;99034.83;109036;1278;22514;-69
2022/01/10 05:40:03;;;;;;;21.70;13.40;;;;;;;-1.71;88.92;99035.25;108913;1278;139975;-69
2022/01/10 05:42:31;;;;;;;23.00;13.50;;;;;;;-1.69;88.90;99041.84;109057;1277;22597;-70
2022/01/10 05:44:59;;;;;;;25.40;15.40;;;;;;;-1.67;88.96;99041.66;109022;1277;23660;-70
2022/01/10 05:47:27;;;;;;;24.80;15.60;;;;;;;-1.65;89.01;99045.35;108965;1277;136974;-71
2022/01/10 05:50:01;;;;;;;25.90;15.20;;;;;;;-1.65;88.89;99047.02;108951;1278;22684;-71
2022/01/10 05:52:34;;;;;;;27.00;15.40;;;;;;;-1.68;88.63;99048.23;108827;1278;139111;-71
2022/01/10 05:55:03;;;;;;;25.80;15.80;;;;;;;-1.69;88.53;99049.77;108889;1277;22596;-71
2022/01/10 05:57:33;;;;;;;21.70;13.70;;;;;;;-1.66;88.66;99054.48;108949;1277;138206;-71
2022/01/10 06:00:03;;;;;;;26.90;14.00;;;;;;;-1.67;88.53;99062.83;108960;1279;22468;-71
2022/01/10 06:02:42;;;;;;;23.50;13.30;;;;;;;-1.66;88.43;99065.80;108948;1278;22475;-71
2022/01/10 06:05:19;;;;;;;22.20;12.70;;;;;;;-1.68;88.17;99065.92;108811;1279;138480;-70
2022/01/10 06:07:51;;;;;;;21.90;12.70;;;;;;;-1.73;88.08;99073.40;108993;1279;22446;-70
2022/01/10 06:10:19;;;;;;;20.20;11.90;;;;;;;-1.76;88.16;99076.30;108843;1278;140034;-70
2022/01/10 06:12:47;;;;;;;20.30;11.80;;;;;;;-1.80;88.01;99075.85;108953;1278;22952;-71
2022/01/10 06:15:16;;;;;;;18.90;11.90;;;;;;;-1.79;88.15;99081.82;108847;1278;138556;-70
2022/01/10 06:17:44;;;;;;;22.90;12.80;;;;;;;-1.80;88.00;99089.23;108972;1279;22614;-71
2022/01/10 06:20:12;;;;;;;22.70;13.90;;;;;;;-1.82;87.84;99092.50;108998;1279;22467;-70
2022/01/10 06:22:40;;;;;;;23.40;14.50;;;;;;;-1.83;88.13;99096.19;108889;1278;137632;-70
2022/01/10 06:25:15;;;;;;;26.90;12.80;;;;;;;-1.85;87.98;99098.02;109020;1279;22542;-70
2022/01/10 06:27:43;;;;;;;25.20;13.50;;;;;;;-1.86;87.89;99100.33;108866;1279;139887;-70
2022/01/10 06:30:11;;;;;;;22.30;13.90;;;;;;;-1.88;88.02;99103.91;108939;1279;22944;-70
2022/01/10 06:32:42;;;;;;;28.70;16.00;;;;;;;-1.88;87.85;99105.89;108932;1278;22504;-71
2022/01/10 06:35:12;;;;;;;22.80;13.00;;;;;;;-1.88;87.90;99107.35;108804;1279;139184;-69
2022/01/10 06:37:42;;;;;;;28.00;14.70;;;;;;;-1.88;88.18;99111.42;108887;1279;23361;-70
2022/01/10 06:40:12;;;;;;;24.30;14.00;;;;;;;-1.88;88.13;99118.17;108857;1279;138330;-70
2022/01/10 06:42:44;;;;;;;26.40;14.10;;;;;;;-1.86;88.08;99119.92;108944;1279;22481;-70
2022/01/10 06:45:18;;;;;;;29.10;16.90;;;;;;;-1.84;88.19;99120.98;108813;1279;139103;-70
2022/01/10 06:47:46;;;;;;;25.00;14.70;;;;;;;-1.82;88.02;99122.61;108945;1279;22554;-70
2022/01/10 06:50:14;;;;;;;28.00;16.30;;;;;;;-1.81;88.10;99129.98;108899;1280;22465;-70
2022/01/10 06:52:44;;;;;;;26.40;14.90;;;;;;;-1.79;88.14;99130.45;108857;1278;139781;-71
2022/01/10 06:55:11;;;;;;;32.00;16.10;;;;;;;-1.76;88.01;99136.70;109000;1278;23266;-70
2022/01/10 06:57:40;;;;;;;28.80;15.90;;;;;;;-1.75;88.04;99142.76;108872;1278;139741;-70
2022/01/10 07:00:09;;;;;;;26.60;15.40;;;;;;;-1.74;87.93;99143.38;108938;1279;22529;-71
2022/01/10 07:02:43;;;;;;;32.60;16.40;;;;;;;-1.74;87.78;99143.55;108830;1279;22302;-70
2022/01/10 07:05:12;;;;;;;32.00;16.90;;;;;;;-1.73;87.89;99146.88;108860;1280;137729;-70
2022/01/10 07:07:40;;;;;;;30.30;16.80;;;;;;;-1.73;87.88;99149.45;108985;1279;22509;-71
2022/01/10 07:10:19;;;;;;;29.80;16.60;;;;;;;-1.74;87.62;99153.12;108839;1279;139390;-70
2022/01/10 07:12:47;;;;;;;30.20;15.70;;;;;;;-1.75;87.61;99149.48;108961;1280;22483;-70
2022/01/10 07:15:15;;;;;;;32.80;15.90;;;;;;;-1.73;87.51;99151.46;108823;1279;141926;-70
2022/01/10 07:17:43;;;;;;;28.80;16.90;;;;;;;-1.70;87.72;99153.71;109070;1277;22488;-70
2022/01/10 07:20:15;;;;;;;34.20;17.70;;;;;;;-1.65;87.76;99152.62;108987;1277;23714;-70
2022/01/10 07:22:45;;;;;;;35.50;17.50;;;;;;;-1.61;87.70;99154.27;108929;1277;138303;-70
2022/01/10 07:25:13;;;;;;;49.80;22.50;;;;;;;-1.57;87.84;99156.56;108945;1280;22497;-71
2022/01/10 07:27:41;;;;;;;40.00;19.70;;;;;;;-1.53;87.70;99154.10;109058;1277;138419;-70
2022/01/10 07:30:09;;;;;;;32.40;17.30;;;;;;;-1.49;87.54;99159.13;109120;1277;22647;-70
2022/01/10 07:32:37;;;;;;;33.60;17.50;;;;;;;-1.48;87.34;99159.05;109114;1277;22541;-70
2022/01/10 07:35:06;;;;;;;33.90;18.30;;;;;;;-1.50;87.27;99160.88;109008;1277;137390;-70
2022/01/10 07:37:37;;;;;;;33.30;17.90;;;;;;;-1.53;87.15;99164.80;109133;1277;23009;-70
2022/01/10 07:40:05;;;;;;;32.30;17.90;;;;;;;-1.55;86.96;99163.05;108959;1277;137418;-70
2022/01/10 07:42:35;;;;;;;35.50;19.40;;;;;;;-1.56;86.82;99168.46;109027;1277;23366;-69
2022/01/10 07:45:09;;;;;;;37.70;19.00;;;;;;;-1.57;86.86;99173.31;108799;1280;138795;-70
2022/01/10 07:47:38;;;;;;;36.50;18.10;;;;;;;-1.59;86.70;99173.73;109126;1277;22465;-69
2022/01/10 07:50:06;;;;;;;35.50;18.70;;;;;;;-1.62;86.49;99173.75;109170;1277;23321;-70
2022/01/10 07:52:34;;;;;;;32.50;17.00;;;;;;;-1.63;86.64;99175.54;108981;1277;139101;-70
2022/01/10 07:55:03;;;;;;;31.20;16.90;;;;;;;-1.63;86.72;99180.88;109189;1276;22471;-70
2022/01/10 07:57:34;;;;;;;31.90;16.50;;;;;;;-1.63;86.77;99182.27;108993;1277;138371;-69
2022/01/10 08:00:06;;;;;;;33.00;18.40;;;;;;;-1.61;86.88;99186.96;109127;1277;22505;-70
2022/01/10 08:02:40;;;;;;;29.70;17.30;;;;;;;-1.57;86.68;99193.92;109122;1277;23304;-70
2022/01/10 08:05:10;;;;;;;32.20;18.30;;;;;;;-1.55;86.56;99196.94;109032;1277;139812;-55
2022/01/10 08:07:42;;;;;;;32.00;17.40;;;;;;;-1.54;86.26;99203.20;109100;1277;22451;-70
2022/01/10 08:10:10;;;;;;;29.80;18.10;;;;;;;-1.56;86.10;99208.40;109029;1277;137511;-69
2022/01/10 08:12:37;;;;;;;36.40;18.10;;;;;;;-1.57;86.19;99209.49;109135;1277;23669;-69
2022/01/10 08:15:06;;;;;;;29.00;16.50;;;;;;;-1.61;86.01;99206.42;109063;1277;137765;-70
2022/01/10 08:17:35;;;;;;;38.60;19.70;;;;;;;-1.64;85.84;99207.66;109180;1277;22476;-70
2022/01/10 08:20:04;;;;;;;33.30;17.90;;;;;;;-1.67;85.84;99211.23;107798;1277;23210;-69
2022/01/10 08:22:32;;;;;;;32.40;16.60;;;;;;;-1.69;85.47;99213.02;109037;1277;138196;-69
2022/01/10 08:25:00;;;;;;;29.40;15.00;;;;;;;-1.70;85.43;99218.71;109131;1277;22499;-69
2022/01/10 08:27:28;;;;;;;30.70;14.30;;;;;;;-1.69;85.54;99223.01;108956;1277;139070;-69
2022/01/10 08:29:56;;;;;;;24.80;14.30;;;;;;;-1.67;85.47;99225.85;109124;1277;24309;-69
2022/01/10 08:32:24;;;;;;;27.10;14.00;;;;;;;-1.65;85.33;99225.20;109121;1277;22563;-70
2022/01/10 08:34:52;;;;;;;26.10;14.90;;;;;;;-1.64;84.90;99230.48;108980;1277;140390;-69
2022/01/10 08:37:21;;;;;;;26.20;14.90;;;;;;;-1.69;84.79;99229.74;109132;1277;22455;-70
2022/01/10 08:39:51;;;;;;;30.20;15.70;;;;;;;-1.71;84.72;99233.27;109039;1277;138271;-70
2022/01/10 08:42:19;;;;;;;27.40;15.20;;;;;;;-1.73;84.55;99238.30;109011;1277;22479;-69
2022/01/10 08:44:47;;;;;;;26.20;15.20;;;;;;;-1.75;84.34;99237.11;109119;1277;22651;-69
2022/01/10 08:47:20;;;;;;;26.70;13.50;;;;;;;-1.78;84.02;99241.89;108994;1277;137866;-70
2022/01/10 08:49:48;;;;;;;19.70;11.80;;;;;;;-1.83;83.94;99248.21;109157;1277;22541;-70
2022/01/10 08:52:16;;;;;;;16.70;10.60;;;;;;;-1.86;83.89;99246.25;108825;1277;139995;-70
2022/01/10 08:54:44;;;;;;;22.60;12.20;;;;;;;-1.86;83.63;99243.86;109153;1277;22461;-70
2022/01/10 08:57:12;;;;;;;18.70;9.90;;;;;;;-1.87;83.37;99245.69;109105;1277;138642;-70
2022/01/10 08:59:40;;;;;;;21.20;12.30;;;;;;;-1.87;83.27;99252.48;109006;1277;22417;-69
2022/01/10 09:02:08;;;;;;;23.50;13.20;;;;;;;-1.86;83.08;99250.67;109133;1277;22442;-68
2022/01/10 09:04:38;;;;;;;21.70;13.20;;;;;;;-1.86;83.14;99250.14;109076;1277;140077;-68
2022/01/10 09:07:08;;;;;;;21.70;13.30;;;;;;;-1.89;82.98;99250.41;109134;1277;22417;-60
2022/01/10 09:09:36;;;;;;;22.70;13.30;;;;;;;-1.91;83.16;99252.92;109071;1277;137572;-60
2022/01/10 09:12:05;;;;;;;25.30;15.20;;;;;;;-1.94;83.05;99261.30;109023;1277;23437;-60
2022/01/10 09:14:33;;;;;;;27.20;15.50;;;;;;;-1.98;82.93;99259.63;109158;1277;22469;-60
2022/01/10 09:17:03;;;;;;;25.30;13.90;;;;;;;-2.00;83.24;99260.42;109009;1277;138255;-59
2022/01/10 09:19:31;;;;;;;22.80;12.50;;;;;;;-2.01;83.15;99259.88;109034;1279;22416;-60
2022/01/10 09:21:59;;;;;;;22.40;13.00;;;;;;;-2.03;83.00;99260.23;109030;1277;138381;-60
2022/01/10 09:24:27;;;;;;;21.80;12.60;;;;;;;-2.03;82.97;99257.94;108961;1277;22532;-60
2022/01/10 09:26:56;;;;;;;25.10;13.80;;;;;;;-2.03;83.18;99262.94;109160;1277;22635;-61
2022/01/10 09:29:24;;;;;;;25.10;13.40;;;;;;;-2.02;83.10;99264.73;109039;1277;141090;-60
2022/01/10 09:31:52;;;;;;;24.40;14.10;;;;;;;-2.02;83.15;99272.80;109163;1277;22602;-60
2022/01/10 09:34:20;;;;;;;24.90;16.00;;;;;;;-2.02;83.53;99271.40;109067;1277;138505;-61
2022/01/10 09:36:48;;;;;;;32.70;17.60;;;;;;;-2.04;83.56;99280.14;106111;1277;22716;-59
2022/01/10 09:39:16;;;;;;;32.30;17.40;;;;;;;-2.04;83.58;99280.70;104632;1277;137546;-61
2022/01/10 09:41:44;;;;;;;31.10;17.90;;;;;;;-2.04;83.84;99280.05;104664;1277;22722;-60
2022/01/10 09:44:12;;;;;;;40.30;19.30;;;;;;;-2.06;83.96;99276.52;104610;1277;22613;-61
2022/01/10 09:46:40;;;;;;;31.70;16.40;;;;;;;-2.07;83.95;99279.66;109103;1277;138237;-62
2022/01/10 09:49:07;;;;;;;29.70;15.50;;;;;;;-2.11;83.83;99286.38;109143;1277;22515;-60
2022/01/10 09:51:35;;;;;;;27.70;15.50;;;;;;;-2.17;84.03;99283.92;109042;1277;138591;-60
2022/01/10 09:54:03;;;;;;;27.20;15.50;;;;;;;-2.21;84.21;99292.31;109149;1277;22640;-61
2022/01/10 09:56:37;;;;;;;28.10;15.90;;;;;;;-2.24;84.44;99293.44;109057;1277;23293;-60
2022/01/10 09:59:05;;;;;;;30.70;16.70;;;;;;;-2.28;84.52;99294.73;108944;1277;138527;-60
2022/01/10 10:01:33;;;;;;;27.20;14.40;;;;;;;-2.33;84.67;99294.02;109121;1277;22412;-61
2022/01/10 10:04:02;;;;;;;27.70;15.20;;;;;;;-2.36;84.71;99296.10;108960;1277;138757;-59
2022/01/10 10:06:31;;;;;;;30.10;14.00;;;;;;;-2.37;84.89;99301.77;109185;1277;23251;-61
2022/01/10 10:09:00;;;;;;;24.20;13.70;;;;;;;-2.39;84.78;99304.41;109101;1277;22570;-61
2022/01/10 10:11:41;;;;;;;25.90;14.80;;;;;;;-2.44;84.68;99308.71;109005;1277;138418;-61
2022/01/10 10:14:10;;;;;;;28.40;15.90;;;;;;;-2.50;84.75;99314.33;109088;1277;23216;-61
2022/01/10 10:16:42;;;;;;;25.70;14.00;;;;;;;-2.55;84.85;99313.72;108752;1277;137505;-61
2022/01/10 10:19:09;;;;;;;29.40;16.00;;;;;;;-2.57;84.69;99319.83;109130;1277;23440;-62
2022/01/10 10:21:38;;;;;;;22.90;12.30;;;;;;;-2.59;84.58;99324.02;108844;1279;138398;-61
2022/01/10 10:24:05;;;;;;;25.40;14.20;;;;;;;-2.60;84.49;99323.44;109150;1277;22475;-61
2022/01/10 10:26:34;;;;;;;31.30;16.20;;;;;;;-2.61;84.41;99328.05;109127;1277;23242;-61
2022/01/10 10:29:02;;;;;;;26.40;13.00;;;;;;;-2.61;84.58;99333.48;108858;1279;139014;-61
2022/01/10 10:31:35;;;;;;;18.30;11.20;;;;;;;-2.60;84.30;99333.16;109117;1277;22489;-61
2022/01/10 10:34:04;;;;;;;18.40;9.50;;;;;;;-2.62;83.89;99333.05;109046;1277;138293;-61
2022/01/10 10:36:34;;;;;;;21.10;11.40;;;;;;;-2.64;83.69;99333.87;109155;1277;22442;-61
2022/01/10 10:39:07;;;;;;;17.80;11.20;;;;;;;-2.66;83.58;99338.58;109039;1277;23353;-61
2022/01/10 10:41:35;;;;;;;21.00;12.40;;;;;;;-2.70;83.65;99335.30;109098;1277;138470;-61
2022/01/10 10:44:04;;;;;;;22.50;12.90;;;;;;;-2.75;83.82;99337.28;109105;1277;22687;-61
2022/01/10 10:46:36;;;;;;;21.00;13.00;;;;;;;-2.79;83.97;99340.28;109011;1277;139370;-61
2022/01/10 10:49:04;;;;;;;24.20;14.30;;;;;;;-2.84;84.05;99343.42;109001;1278;23287;-61
2022/01/10 10:51:35;;;;;;;21.70;12.40;;;;;;;-2.89;84.38;99349.95;108996;1277;139569;-61
2022/01/10 10:54:08;;;;;;;25.60;12.30;;;;;;;-2.93;84.39;99349.46;109103;1277;23310;-61
2022/01/10 10:56:40;;;;;;;22.00;11.20;;;;;;;-2.95;84.40;99353.49;109138;1277;23513;-61
2022/01/10 10:59:08;;;;;;;20.90;11.20;;;;;;;-2.95;84.59;99349.74;109001;1277;138201;-61
2022/01/10 11:01:36;;;;;;;19.70;12.00;;;;;;;-2.95;84.69;99349.41;109088;1277;22501;-61
2022/01/10 11:04:06;;;;;;;24.70;13.10;;;;;;;-2.95;84.77;99352.77;108865;1277;139256;-61
2022/01/10 11:06:34;;;;;;;22.80;13.90;;;;;;;-2.95;84.99;99356.98;108900;1279;23249;-60
2022/01/10 11:09:06;;;;;;;19.90;11.10;;;;;;;-2.96;85.01;99354.08;109128;1277;22381;-60
2022/01/10 11:11:36;;;;;;;18.60;11.70;;;;;;;-2.96;85.14;99356.43;108865;1278;138808;-59
2022/01/10 11:14:04;;;;;;;18.90;12.30;;;;;;;-2.95;85.25;99360.20;108818;1277;22586;-59
2022/01/10 11:16:35;;;;;;;20.10;12.20;;;;;;;-2.95;85.28;99358.27;108795;1279;138017;-59
2022/01/10 11:19:10;;;;;;;22.40;12.20;;;;;;;-2.97;85.06;99360.58;108884;1279;22457;-59
2022/01/10 11:21:40;;;;;;;22.10;11.90;;;;;;;-3.01;85.02;99364.98;108909;1279;138484;-59
2022/01/10 11:24:08;;;;;;;23.80;12.40;;;;;;;-3.06;84.91;99367.23;109038;1279;22525;-59
2022/01/10 11:26:40;;;;;;;23.50;12.80;;;;;;;-3.09;84.97;99371.77;108889;1279;22407;-59
2022/01/10 11:29:09;;;;;;;22.90;12.60;;;;;;;-3.11;85.08;99378.11;108910;1279;138951;-60
2022/01/10 11:31:39;;;;;;;23.80;13.10;;;;;;;-3.17;85.02;99379.42;108994;1279;22455;-60